Time,TemperatureF,DewpointF,PressureIn,WindDirection,WindDirectionDegrees,WindSpeedMPH,WindSpeedGustMPH,Humidity,HourlyPrecipIn,Conditions,Clouds,dailyrainin,SolarRadiationWatts/m^2,SoftwareType,DateUTC
2013-07-02 00:02:00,66.0,65.0,-100.00,North,2,1.0,2.0,98,0.00,,,1.21,0.000000,,2013-07-02 04:02:00,
2013-07-02 00:42:00,66.0,65.0,-100.00,NNE,22,1.0,3.0,98,0.00,,,1.21,0.000000,,2013-07-02 04:42:00,
2013-07-02 00:54:00,66.0,65.0,-100.00,NNE,22,1.0,3.0,98,0.00,,,1.21,0.000000,,2013-07-02 04:54:00,
2013-07-02 01:02:00,66.0,65.0,-100.00,NNE,22,1.0,3.0,98,0.00,,,1.21,0.000000,,2013-07-02 05:02:00,
2013-07-02 01:32:00,66.0,65.0,-100.00,ENE,58,1.0,2.0,98,0.01,,,1.22,0.000000,,2013-07-02 05:32:00,
2013-07-02 01:43:00,66.0,65.0,-100.00,ENE,58,1.0,2.0,98,0.01,,,1.22,0.000000,,2013-07-02 05:43:00,
2013-07-02 01:53:00,66.0,65.0,-100.00,ENE,58,1.0,2.0,98,0.01,,,1.22,0.000000,,2013-07-02 05:53:00,
2013-07-02 02:01:00,66.0,65.0,-100.00,ENE,58,1.0,2.0,98,0.01,,,1.22,0.000000,,2013-07-02 06:01:00,
2013-07-02 02:43:00,66.0,65.0,-100.00,ENE,65,1.0,4.0,98,0.01,,,1.23,0.000000,,2013-07-02 06:43:00,
2013-07-02 02:53:00,66.0,65.0,-100.00,ENE,65,1.0,4.0,98,0.01,,,1.23,0.000000,,2013-07-02 06:53:00,
2013-07-02 03:01:00,66.0,65.0,-100.00,ENE,65,1.0,4.0,98,0.01,,,1.23,0.000000,,2013-07-02 07:01:00,
2013-07-02 03:44:00,66.0,65.0,-100.00,ESE,117,1.0,3.0,98,0.03,,,1.16,0.000000,,2013-07-02 07:44:00,
2013-07-02 03:53:00,66.0,65.0,-100.00,ESE,117,1.0,3.0,98,0.03,,,1.16,0.000000,,2013-07-02 07:53:00,
2013-07-02 04:02:00,66.0,65.0,-100.00,ESE,117,1.0,3.0,98,0.03,,,1.16,0.000000,,2013-07-02 08:02:00,
2013-07-02 04:33:00,67.0,66.0,-100.00,SE,129,2.0,4.0,98,0.05,,,-99.99,0.000000,,2013-07-02 08:33:00,
2013-07-02 04:44:00,67.0,66.0,-100.00,SE,129,2.0,4.0,98,0.05,,,-99.99,0.000000,,2013-07-02 08:44:00,
2013-07-02 04:53:00,67.0,66.0,-100.00,SE,129,2.0,4.0,98,0.05,,,-99.99,0.000000,,2013-07-02 08:53:00,
2013-07-02 05:02:00,67.0,66.0,-100.00,SE,129,2.0,4.0,98,0.05,,,-99.99,0.000000,,2013-07-02 09:02:00,
2013-07-02 05:43:00,67.0,67.0,-100.00,NNE,19,1.0,2.0,99,0.00,,,0.99,0.000000,,2013-07-02 09:43:00,
2013-07-02 05:52:00,67.0,67.0,-100.00,NNE,19,1.0,2.0,99,0.00,,,0.99,0.000000,,2013-07-02 09:52:00,
2013-07-02 06:01:00,67.0,67.0,-100.00,NNE,19,1.0,2.0,99,0.00,,,0.99,0.000000,,2013-07-02 10:01:00,
2013-07-02 06:44:00,67.0,67.0,-100.00,SE,127,1.0,3.0,99,0.00,,,0.99,0.000000,,2013-07-02 10:44:00,
2013-07-02 06:52:00,67.0,67.0,-100.00,SE,127,1.0,3.0,99,0.00,,,0.99,0.000000,,2013-07-02 10:52:00,
2013-07-02 07:01:00,67.0,67.0,-100.00,SE,127,1.0,3.0,99,0.00,,,0.99,0.000000,,2013-07-02 11:01:00,
2013-07-02 07:42:00,68.0,68.0,-100.00,SE,133,2.0,5.0,99,0.00,,,0.82,1.000000,,2013-07-02 11:42:00,
2013-07-02 07:52:00,68.0,68.0,-100.00,SE,133,2.0,5.0,99,0.00,,,0.82,1.000000,,2013-07-02 11:52:00,
2013-07-02 08:01:00,68.0,68.0,-100.00,SE,133,2.0,5.0,99,0.00,,,0.82,1.000000,,2013-07-02 12:01:00,
2013-07-02 13:43:00,83.0,72.0,-100.00,SSE,165,2.0,4.0,70,-99.99,,,0.88,876.000000,,2013-07-02 17:43:00,
2013-07-02 13:53:00,83.0,72.0,-100.00,SSE,165,2.0,4.0,70,-99.99,,,0.88,876.000000,,2013-07-02 17:53:00,
2013-07-02 14:02:00,83.0,72.0,-100.00,SSE,165,2.0,4.0,70,-99.99,,,0.88,876.000000,,2013-07-02 18:02:00,
2013-07-02 14:43:00,79.0,70.0,-100.00,SE,129,2.0,4.0,73,0.00,,,0.88,571.000000,,2013-07-02 18:43:00,
2013-07-02 14:53:00,79.0,70.0,-100.00,SE,129,2.0,4.0,73,0.00,,,0.88,571.000000,,2013-07-02 18:53:00,
2013-07-02 15:01:00,79.0,70.0,-100.00,SE,129,2.0,4.0,73,0.00,,,0.88,571.000000,,2013-07-02 19:01:00,
2013-07-02 15:34:00,82.0,73.0,-100.00,ESE,123,2.0,4.0,74,0.00,,,0.88,498.000000,,2013-07-02 19:34:00,
2013-07-02 15:43:00,82.0,73.0,-100.00,ESE,123,2.0,4.0,74,0.00,,,0.88,498.000000,,2013-07-02 19:43:00,
2013-07-02 15:53:00,82.0,73.0,-100.00,ESE,123,2.0,4.0,74,0.00,,,0.88,498.000000,,2013-07-02 19:53:00,
2013-07-02 16:02:00,82.0,73.0,-100.00,ESE,123,2.0,4.0,74,0.00,,,0.88,498.000000,,2013-07-02 20:02:00,
2013-07-02 16:33:00,84.0,71.0,-100.00,SE,144,2.0,5.0,66,0.00,,,0.88,795.000000,,2013-07-02 20:33:00,
2013-07-02 16:43:00,84.0,71.0,-100.00,SE,144,2.0,5.0,66,0.00,,,0.88,795.000000,,2013-07-02 20:43:00,
2013-07-02 16:52:00,84.0,71.0,-100.00,SE,144,2.0,5.0,66,0.00,,,0.88,795.000000,,2013-07-02 20:52:00,
2013-07-02 17:02:00,84.0,71.0,-100.00,SE,144,2.0,5.0,66,0.00,,,0.88,795.000000,,2013-07-02 21:02:00,
2013-07-02 17:44:00,83.0,69.0,-100.00,SSE,148,2.0,6.0,62,0.00,,,0.88,767.000000,,2013-07-02 21:44:00,
2013-07-02 17:52:00,83.0,69.0,-100.00,SSE,148,2.0,6.0,62,0.00,,,0.88,767.000000,,2013-07-02 21:52:00,
2013-07-02 18:01:00,83.0,69.0,-100.00,SSE,148,2.0,6.0,62,0.00,,,0.88,767.000000,,2013-07-02 22:01:00,
2013-07-02 18:34:00,82.0,68.0,-100.00,SSE,149,3.0,5.0,62,0.00,,,0.87,603.000000,,2013-07-02 22:34:00,
2013-07-02 18:43:00,82.0,68.0,-100.00,SSE,149,3.0,5.0,62,0.00,,,0.87,603.000000,,2013-07-02 22:43:00,
2013-07-02 18:53:00,82.0,68.0,-100.00,SSE,149,3.0,5.0,62,0.00,,,0.87,603.000000,,2013-07-02 22:53:00,
2013-07-02 19:01:00,82.0,68.0,-100.00,SSE,149,3.0,5.0,62,0.00,,,0.87,603.000000,,2013-07-02 23:01:00,
2013-07-02 19:33:00,77.0,69.0,-100.00,SE,136,2.0,7.0,76,0.00,,,0.20,168.000000,,2013-07-02 23:33:00,
2013-07-02 19:44:00,77.0,69.0,-100.00,SE,136,2.0,7.0,76,0.00,,,0.20,168.000000,,2013-07-02 23:44:00,
2013-07-02 19:52:00,77.0,69.0,-100.00,SE,136,2.0,7.0,76,0.00,,,0.20,168.000000,,2013-07-02 23:52:00,
2013-07-02 20:01:00,77.0,69.0,-100.00,SE,136,2.0,7.0,76,0.00,,,0.20,168.000000,,2013-07-03 00:01:00,
2013-07-02 20:33:00,75.0,70.0,-100.00,SE,145,3.0,6.0,85,0.00,,,0.18,68.000000,,2013-07-03 00:33:00,
2013-07-02 20:44:00,75.0,70.0,-100.00,SE,145,3.0,6.0,85,0.00,,,0.18,68.000000,,2013-07-03 00:44:00,
2013-07-02 20:52:00,75.0,70.0,-100.00,SE,145,3.0,6.0,85,0.00,,,0.18,68.000000,,2013-07-03 00:52:00,
2013-07-02 21:01:00,75.0,70.0,-100.00,SE,145,3.0,6.0,85,0.00,,,0.18,68.000000,,2013-07-03 01:01:00,
2013-07-02 21:33:00,73.0,69.0,-100.00,SE,132,4.0,10.0,88,0.00,,,0.18,12.000000,,2013-07-03 01:33:00,
2013-07-02 21:43:00,73.0,69.0,-100.00,SE,132,4.0,10.0,88,0.00,,,0.18,12.000000,,2013-07-03 01:43:00,
2013-07-02 21:59:00,73.0,69.0,-100.00,SE,132,4.0,10.0,88,0.00,,,0.18,12.000000,,2013-07-03 01:59:00,
2013-07-02 22:05:00,73.0,69.0,-100.00,SE,132,4.0,10.0,88,0.00,,,0.18,12.000000,,2013-07-03 02:05:00,
2013-07-02 22:40:00,72.0,69.0,-100.00,SE,132,3.0,8.0,91,0.00,,,0.18,0.000000,,2013-07-03 02:40:00,
2013-07-02 22:46:00,72.0,69.0,-100.00,SE,132,3.0,8.0,91,0.00,,,0.18,0.000000,,2013-07-03 02:46:00,
2013-07-02 22:59:00,72.0,69.0,-100.00,SE,132,3.0,8.0,91,0.00,,,0.18,0.000000,,2013-07-03 02:59:00,
2013-07-02 23:49:00,71.0,69.0,-100.00,SE,144,2.0,6.0,93,0.00,,,0.18,0.000000,,2013-07-03 03:49:00,
2013-07-02 23:58:00,71.0,69.0,-100.00,SE,144,2.0,6.0,93,0.00,,,0.18,0.000000,,2013-07-03 03:58:00,